West Dade, Florida
Current Conditions -  °F | °C
As of 4:11 AM on Tuesday 21 Oct 2014 (Local Time) from KTMB Reporting Station
Light Rain Light Rain  
Wind Chill: 76°   Ceiling: 3300
Heat Index: 76°   Visibility: 10mi
Dew Point: 72°   Wind: 5mph
Humidity: 87%   Direction: 170°S
Pressure: 29.92"   Gusts: NA
Location:  25.5736°N, 80.7073°W
Report Text: KTMB 210811Z AUTO 17004KT 10SM -RA FEW021 BKN033 OVC055 24/22 A2992 RMK AO2 LTG DSNT SE AND S P0002 T02440222
Loading
Personal Weather Stations






























Interactive Weather Map
Tropical Storm Tracking
New forecast layout! Learn more

10-Day Weather Forecast

Advertisements
Track Severe Weather on mobile